sensor_id;sensor_type;location;lat;lon;timestamp;temperature;humidity
38568;DHT22;24338;48.280;10.970;2023-04-20T00:01:58;4.40;99.90
38568;DHT22;24338;48.280;10.970;2023-04-20T00:04:28;4.30;99.90
38568;DHT22;24338;48.280;10.970;2023-04-20T00:06:58;4.30;99.90
38568;DHT22;24338;48.280;10.970;2023-04-20T00:09:26;4.30;99.90
38568;DHT22;24338;48.280;10.970;2023-04-20T00:11:53;4.30;99.90
38568;DHT22;24338;48.280;10.970;2023-04-20T00:14:20;4.30;99.90
38568;DHT22;24338;48.280;10.970;2023-04-20T00:16:47;4.30;99.90
38568;DHT22;24338;48.280;10.970;2023-04-20T00:19:14;4.30;99.90
38568;DHT22;24338;48.280;10.970;2023-04-20T00:21:42;4.30;99.90
38568;DHT22;24338;48.280;10.970;2023-04-20T00:24:10;4.30;99.90
38568;DHT22;24338;48.280;10.970;2023-04-20T00:26:37;4.30;99.90
38568;DHT22;24338;48.280;10.970;2023-04-20T00:29:03;4.20;99.90
38568;DHT22;24338;48.280;10.970;2023-04-20T00:31:33;4.20;99.90
38568;DHT22;24338;48.280;10.970;2023-04-20T00:34:00;4.20;99.90
38568;DHT22;24338;48.280;10.970;2023-04-20T00:36:27;4.20;99.90
38568;DHT22;24338;48.280;10.970;2023-04-20T00:38:55;4.20;99.90
38568;DHT22;24338;48.280;10.970;2023-04-20T00:41:22;4.20;99.90
38568;DHT22;24338;48.280;10.970;2023-04-20T00:43:50;4.20;99.90
38568;DHT22;24338;48.280;10.970;2023-04-20T00:46:19;4.20;99.90
38568;DHT22;24338;48.280;10.970;2023-04-20T00:48:47;4.20;99.90
38568;DHT22;24338;48.280;10.970;2023-04-20T00:51:22;4.20;99.90
38568;DHT22;24338;48.280;10.970;2023-04-20T00:53:49;4.20;99.90
38568;DHT22;24338;48.280;10.970;2023-04-20T00:56:19;4.20;99.90
38568;DHT22;24338;48.280;10.970;2023-04-20T00:58:46;4.20;99.90
38568;DHT22;24338;48.280;10.970;2023-04-20T01:01:16;4.10;99.90
38568;DHT22;24338;48.280;10.970;2023-04-20T01:03:44;4.20;99.90
38568;DHT22;24338;48.280;10.970;2023-04-20T01:06:13;4.20;99.90
38568;DHT22;24338;48.280;10.970;2023-04-20T01:08:52;4.20;99.90
38568;DHT22;24338;48.280;10.970;2023-04-20T01:11:19;4.20;99.90
38568;DHT22;24338;48.280;10.970;2023-04-20T01:13:49;4.20;99.90
38568;DHT22;24338;48.280;10.970;2023-04-20T01:16:16;4.20;99.90
38568;DHT22;24338;48.280;10.970;2023-04-20T01:18:47;4.20;99.90
38568;DHT22;24338;48.280;10.970;2023-04-20T01:21:16;4.20;99.90
38568;DHT22;24338;48.280;10.970;2023-04-20T01:23:44;4.20;99.90
38568;DHT22;24338;48.280;10.970;2023-04-20T01:26:16;4.10;99.90
38568;DHT22;24338;48.280;10.970;2023-04-20T01:28:44;4.10;99.90
38568;DHT22;24338;48.280;10.970;2023-04-20T01:31:11;4.10;99.90
38568;DHT22;24338;48.280;10.970;2023-04-20T01:33:38;4.10;99.90
38568;DHT22;24338;48.280;10.970;2023-04-20T01:36:07;4.10;99.90
38568;DHT22;24338;48.280;10.970;2023-04-20T01:38:38;4.10;99.90
38568;DHT22;24338;48.280;10.970;2023-04-20T01:41:07;4.00;99.90
38568;DHT22;24338;48.280;10.970;2023-04-20T01:43:35;4.10;99.90
38568;DHT22;24338;48.280;10.970;2023-04-20T01:46:03;4.10;99.90
38568;DHT22;24338;48.280;10.970;2023-04-20T01:48:30;4.10;99.90
38568;DHT22;24338;48.280;10.970;2023-04-20T01:51:00;4.10;99.90
38568;DHT22;24338;48.280;10.970;2023-04-20T01:53:30;4.10;99.90
38568;DHT22;24338;48.280;10.970;2023-04-20T01:55:58;4.10;99.90
38568;DHT22;24338;48.280;10.970;2023-04-20T01:58:27;4.10;99.90
38568;DHT22;24338;48.280;10.970;2023-04-20T02:00:54;4.10;99.90
38568;DHT22;24338;48.280;10.970;2023-04-20T02:03:21;4.10;99.90
38568;DHT22;24338;48.280;10.970;2023-04-20T02:05:51;4.10;99.90
38568;DHT22;24338;48.280;10.970;2023-04-20T02:08:19;4.10;99.90
38568;DHT22;24338;48.280;10.970;2023-04-20T02:13:15;4.20;99.90
38568;DHT22;24338;48.280;10.970;2023-04-20T02:15:42;4.10;99.90
38568;DHT22;24338;48.280;10.970;2023-04-20T02:18:11;4.10;99.90
38568;DHT22;24338;48.280;10.970;2023-04-20T02:20:41;4.10;99.90
38568;DHT22;24338;48.280;10.970;2023-04-20T02:23:08;4.20;99.90
38568;DHT22;24338;48.280;10.970;2023-04-20T02:25:35;4.20;99.90
38568;DHT22;24338;48.280;10.970;2023-04-20T02:28:02;4.20;99.90
38568;DHT22;24338;48.280;10.970;2023-04-20T02:30:29;4.20;99.90
38568;DHT22;24338;48.280;10.970;2023-04-20T02:33:08;4.20;99.90
38568;DHT22;24338;48.280;10.970;2023-04-20T02:35:35;4.20;99.90
38568;DHT22;24338;48.280;10.970;2023-04-20T02:38:02;4.20;99.90
38568;DHT22;24338;48.280;10.970;2023-04-20T02:40:29;4.10;99.90
38568;DHT22;24338;48.280;10.970;2023-04-20T02:42:56;4.20;99.90
38568;DHT22;24338;48.280;10.970;2023-04-20T02:45:23;4.20;99.90
38568;DHT22;24338;48.280;10.970;2023-04-20T02:47:49;4.20;99.90
38568;DHT22;24338;48.280;10.970;2023-04-20T02:50:16;4.20;99.90
38568;DHT22;24338;48.280;10.970;2023-04-20T02:52:43;4.10;99.90
38568;DHT22;24338;48.280;10.970;2023-04-20T02:55:10;4.10;99.90
38568;DHT22;24338;48.280;10.970;2023-04-20T02:57:37;4.20;99.90
38568;DHT22;24338;48.280;10.970;2023-04-20T03:00:04;4.20;99.90
38568;DHT22;24338;48.280;10.970;2023-04-20T03:02:35;4.20;99.90
38568;DHT22;24338;48.280;10.970;2023-04-20T03:05:05;4.20;99.90
38568;DHT22;24338;48.280;10.970;2023-04-20T03:07:32;4.20;99.90
38568;DHT22;24338;48.280;10.970;2023-04-20T03:09:58;4.20;99.90
38568;DHT22;24338;48.280;10.970;2023-04-20T03:12:26;4.20;99.90
38568;DHT22;24338;48.280;10.970;2023-04-20T03:14:52;4.20;99.90
38568;DHT22;24338;48.280;10.970;2023-04-20T03:17:19;4.20;99.90
38568;DHT22;24338;48.280;10.970;2023-04-20T03:19:49;4.20;99.90
38568;DHT22;24338;48.280;10.970;2023-04-20T03:22:16;4.20;99.90
38568;DHT22;24338;48.280;10.970;2023-04-20T03:24:47;4.20;99.90
38568;DHT22;24338;48.280;10.970;2023-04-20T03:27:17;4.20;99.90
38568;DHT22;24338;48.280;10.970;2023-04-20T03:29:44;4.20;99.90
38568;DHT22;24338;48.280;10.970;2023-04-20T03:32:10;4.20;99.90
38568;DHT22;24338;48.280;10.970;2023-04-20T03:34:37;4.20;99.90
38568;DHT22;24338;48.280;10.970;2023-04-20T03:37:04;4.20;99.90
38568;DHT22;24338;48.280;10.970;2023-04-20T03:39:31;4.20;99.90
38568;DHT22;24338;48.280;10.970;2023-04-20T03:41:58;4.20;99.90
38568;DHT22;24338;48.280;10.970;2023-04-20T03:44:27;4.20;99.90
38568;DHT22;24338;48.280;10.970;2023-04-20T03:46:53;4.20;99.90
38568;DHT22;24338;48.280;10.970;2023-04-20T03:49:22;4.20;99.90
38568;DHT22;24338;48.280;10.970;2023-04-20T03:51:55;4.20;99.90
38568;DHT22;24338;48.280;10.970;2023-04-20T03:54:22;4.20;99.90
38568;DHT22;24338;48.280;10.970;2023-04-20T03:56:52;4.20;99.90
38568;DHT22;24338;48.280;10.970;2023-04-20T03:59:18;4.20;99.90
38568;DHT22;24338;48.280;10.970;2023-04-20T04:01:46;4.20;99.90
38568;DHT22;24338;48.280;10.970;2023-04-20T04:04:12;4.20;99.90
38568;DHT22;24338;48.280;10.970;2023-04-20T04:06:40;4.20;99.90
38568;DHT22;24338;48.280;10.970;2023-04-20T04:09:07;4.20;99.90
38568;DHT22;24338;48.280;10.970;2023-04-20T04:11:34;4.20;99.90
38568;DHT22;24338;48.280;10.970;2023-04-20T04:14:01;4.20;99.90
38568;DHT22;24338;48.280;10.970;2023-04-20T04:16:31;4.10;99.90
38568;DHT22;24338;48.280;10.970;2023-04-20T04:18:58;4.20;99.90
38568;DHT22;24338;48.280;10.970;2023-04-20T04:21:25;4.20;99.90
38568;DHT22;24338;48.280;10.970;2023-04-20T04:23:53;4.10;99.90
38568;DHT22;24338;48.280;10.970;2023-04-20T04:26:20;4.10;99.90
38568;DHT22;24338;48.280;10.970;2023-04-20T04:28:50;4.10;99.90
38568;DHT22;24338;48.280;10.970;2023-04-20T04:31:20;4.10;99.90
38568;DHT22;24338;48.280;10.970;2023-04-20T04:33:47;4.20;99.90
38568;DHT22;24338;48.280;10.970;2023-04-20T04:36:15;4.20;99.90
38568;DHT22;24338;48.280;10.970;2023-04-20T04:38:43;4.20;99.90
38568;DHT22;24338;48.280;10.970;2023-04-20T04:41:12;4.20;99.90
38568;DHT22;24338;48.280;10.970;2023-04-20T04:43:40;4.20;99.90
38568;DHT22;24338;48.280;10.970;2023-04-20T04:46:08;4.20;99.90
38568;DHT22;24338;48.280;10.970;2023-04-20T04:48:36;4.30;99.90
38568;DHT22;24338;48.280;10.970;2023-04-20T04:51:03;4.30;99.90
38568;DHT22;24338;48.280;10.970;2023-04-20T04:53:30;4.30;99.90
38568;DHT22;24338;48.280;10.970;2023-04-20T04:55:57;4.30;99.90
38568;DHT22;24338;48.280;10.970;2023-04-20T04:58:24;4.30;99.90
38568;DHT22;24338;48.280;10.970;2023-04-20T05:00:51;4.30;99.90
38568;DHT22;24338;48.280;10.970;2023-04-20T05:03:17;4.30;99.90
38568;DHT22;24338;48.280;10.970;2023-04-20T05:05:44;4.40;99.90
38568;DHT22;24338;48.280;10.970;2023-04-20T05:08:11;4.40;99.90
38568;DHT22;24338;48.280;10.970;2023-04-20T05:10:38;4.40;99.90
38568;DHT22;24338;48.280;10.970;2023-04-20T05:13:05;4.40;99.90
38568;DHT22;24338;48.280;10.970;2023-04-20T05:15:32;4.40;99.90
38568;DHT22;24338;48.280;10.970;2023-04-20T05:17:59;4.40;99.90
38568;DHT22;24338;48.280;10.970;2023-04-20T05:20:28;4.40;99.90
38568;DHT22;24338;48.280;10.970;2023-04-20T05:22:54;4.50;99.90
38568;DHT22;24338;48.280;10.970;2023-04-20T05:25:21;4.50;99.90
38568;DHT22;24338;48.280;10.970;2023-04-20T05:27:48;4.50;99.90
38568;DHT22;24338;48.280;10.970;2023-04-20T05:30:15;4.50;99.90
38568;DHT22;24338;48.280;10.970;2023-04-20T05:32:47;4.60;99.90
38568;DHT22;24338;48.280;10.970;2023-04-20T05:35:18;4.60;99.90
38568;DHT22;24338;48.280;10.970;2023-04-20T05:37:45;4.60;99.90
38568;DHT22;24338;48.280;10.970;2023-04-20T05:40:13;4.50;99.90
38568;DHT22;24338;48.280;10.970;2023-04-20T05:42:41;4.50;99.90
38568;DHT22;24338;48.280;10.970;2023-04-20T05:45:09;4.60;99.90
38568;DHT22;24338;48.280;10.970;2023-04-20T05:47:36;4.60;99.90
38568;DHT22;24338;48.280;10.970;2023-04-20T05:50:03;4.60;99.90
38568;DHT22;24338;48.280;10.970;2023-04-20T05:52:30;4.70;99.90
38568;DHT22;24338;48.280;10.970;2023-04-20T05:54:57;4.70;99.90
38568;DHT22;24338;48.280;10.970;2023-04-20T05:57:25;4.70;99.90
38568;DHT22;24338;48.280;10.970;2023-04-20T05:59:51;4.80;99.90
38568;DHT22;24338;48.280;10.970;2023-04-20T06:02:20;4.80;99.90
38568;DHT22;24338;48.280;10.970;2023-04-20T06:04:47;4.80;99.90
38568;DHT22;24338;48.280;10.970;2023-04-20T06:07:15;4.80;99.90
38568;DHT22;24338;48.280;10.970;2023-04-20T06:09:42;4.80;99.90
38568;DHT22;24338;48.280;10.970;2023-04-20T06:12:09;4.90;99.90
38568;DHT22;24338;48.280;10.970;2023-04-20T06:14:35;4.90;99.90
38568;DHT22;24338;48.280;10.970;2023-04-20T06:17:10;4.90;99.90
38568;DHT22;24338;48.280;10.970;2023-04-20T06:19:50;4.90;99.90
38568;DHT22;24338;48.280;10.970;2023-04-20T06:22:18;4.80;99.90
38568;DHT22;24338;48.280;10.970;2023-04-20T06:25:09;4.90;99.90
38568;DHT22;24338;48.280;10.970;2023-04-20T06:28:04;4.90;99.90
38568;DHT22;24338;48.280;10.970;2023-04-20T06:30:38;4.80;99.90
38568;DHT22;24338;48.280;10.970;2023-04-20T06:33:05;4.80;99.90
38568;DHT22;24338;48.280;10.970;2023-04-20T06:35:32;4.80;99.90
38568;DHT22;24338;48.280;10.970;2023-04-20T06:37:58;4.90;99.90
38568;DHT22;24338;48.280;10.970;2023-04-20T06:40:28;4.90;99.90
38568;DHT22;24338;48.280;10.970;2023-04-20T06:42:55;5.00;99.90
38568;DHT22;24338;48.280;10.970;2023-04-20T06:45:22;5.00;99.90
38568;DHT22;24338;48.280;10.970;2023-04-20T06:47:49;5.00;99.90
38568;DHT22;24338;48.280;10.970;2023-04-20T06:50:15;5.00;99.90
38568;DHT22;24338;48.280;10.970;2023-04-20T06:52:42;4.90;99.90
38568;DHT22;24338;48.280;10.970;2023-04-20T06:55:09;4.90;99.90
38568;DHT22;24338;48.280;10.970;2023-04-20T06:57:36;4.80;99.90
38568;DHT22;24338;48.280;10.970;2023-04-20T07:00:08;4.80;99.90
38568;DHT22;24338;48.280;10.970;2023-04-20T07:02:46;4.80;99.90
38568;DHT22;24338;48.280;10.970;2023-04-20T07:05:14;4.80;99.90
38568;DHT22;24338;48.280;10.970;2023-04-20T07:07:41;4.80;99.90
38568;DHT22;24338;48.280;10.970;2023-04-20T07:10:10;4.80;99.90
38568;DHT22;24338;48.280;10.970;2023-04-20T07:12:39;4.80;99.90
38568;DHT22;24338;48.280;10.970;2023-04-20T07:15:09;4.80;99.90
38568;DHT22;24338;48.280;10.970;2023-04-20T07:17:36;4.90;99.90
38568;DHT22;24338;48.280;10.970;2023-04-20T07:20:03;5.00;99.90
38568;DHT22;24338;48.280;10.970;2023-04-20T07:22:34;5.00;99.90
38568;DHT22;24338;48.280;10.970;2023-04-20T07:25:06;5.10;99.90
38568;DHT22;24338;48.280;10.970;2023-04-20T07:27:35;5.10;99.90
38568;DHT22;24338;48.280;10.970;2023-04-20T07:30:03;5.20;99.90
38568;DHT22;24338;48.280;10.970;2023-04-20T07:32:32;5.20;99.90
38568;DHT22;24338;48.280;10.970;2023-04-20T07:34:59;5.20;99.90
38568;DHT22;24338;48.280;10.970;2023-04-20T07:37:26;5.20;99.90
38568;DHT22;24338;48.280;10.970;2023-04-20T07:39:53;5.30;99.90
38568;DHT22;24338;48.280;10.970;2023-04-20T07:42:20;5.20;99.90
38568;DHT22;24338;48.280;10.970;2023-04-20T07:44:49;5.20;99.90
38568;DHT22;24338;48.280;10.970;2023-04-20T07:47:16;5.20;99.90
38568;DHT22;24338;48.280;10.970;2023-04-20T07:49:43;5.10;99.90
38568;DHT22;24338;48.280;10.970;2023-04-20T07:52:10;5.00;99.90
38568;DHT22;24338;48.280;10.970;2023-04-20T07:54:43;4.90;99.90
38568;DHT22;24338;48.280;10.970;2023-04-20T07:57:10;5.00;99.90
38568;DHT22;24338;48.280;10.970;2023-04-20T07:59:37;5.00;99.90
38568;DHT22;24338;48.280;10.970;2023-04-20T08:02:07;5.00;99.90
38568;DHT22;24338;48.280;10.970;2023-04-20T08:04:37;5.00;99.90
38568;DHT22;24338;48.280;10.970;2023-04-20T08:07:04;4.90;99.90
38568;DHT22;24338;48.280;10.970;2023-04-20T08:09:31;4.80;99.90
38568;DHT22;24338;48.280;10.970;2023-04-20T08:11:58;4.70;99.90
38568;DHT22;24338;48.280;10.970;2023-04-20T08:14:25;4.70;99.90
38568;DHT22;24338;48.280;10.970;2023-04-20T08:16:52;4.80;99.90
38568;DHT22;24338;48.280;10.970;2023-04-20T08:19:19;4.80;99.90
38568;DHT22;24338;48.280;10.970;2023-04-20T08:21:46;4.80;99.90
38568;DHT22;24338;48.280;10.970;2023-04-20T08:24:13;4.90;99.90
38568;DHT22;24338;48.280;10.970;2023-04-20T08:26:41;5.00;99.90
38568;DHT22;24338;48.280;10.970;2023-04-20T08:29:08;4.90;99.90
38568;DHT22;24338;48.280;10.970;2023-04-20T08:31:35;4.90;99.90
38568;DHT22;24338;48.280;10.970;2023-04-20T08:34:02;4.90;99.90
38568;DHT22;24338;48.280;10.970;2023-04-20T08:36:29;4.90;99.90
38568;DHT22;24338;48.280;10.970;2023-04-20T08:39:05;4.90;99.90
38568;DHT22;24338;48.280;10.970;2023-04-20T08:41:33;5.00;99.90
38568;DHT22;24338;48.280;10.970;2023-04-20T08:44:00;4.90;99.90
38568;DHT22;24338;48.280;10.970;2023-04-20T08:46:27;4.90;99.90
38568;DHT22;24338;48.280;10.970;2023-04-20T08:48:54;4.90;99.90
38568;DHT22;24338;48.280;10.970;2023-04-20T08:51:22;4.90;99.90
38568;DHT22;24338;48.280;10.970;2023-04-20T08:53:50;5.00;99.90
38568;DHT22;24338;48.280;10.970;2023-04-20T08:56:17;5.00;99.90
38568;DHT22;24338;48.280;10.970;2023-04-20T08:58:44;5.00;99.90
38568;DHT22;24338;48.280;10.970;2023-04-20T09:01:11;5.00;99.90
38568;DHT22;24338;48.280;10.970;2023-04-20T09:03:43;5.10;99.90
38568;DHT22;24338;48.280;10.970;2023-04-20T09:06:15;5.10;99.90
38568;DHT22;24338;48.280;10.970;2023-04-20T09:08:44;5.20;99.90
38568;DHT22;24338;48.280;10.970;2023-04-20T09:11:25;5.40;99.90
38568;DHT22;24338;48.280;10.970;2023-04-20T09:14:03;5.40;99.90
38568;DHT22;24338;48.280;10.970;2023-04-20T09:16:32;5.50;99.90
38568;DHT22;24338;48.280;10.970;2023-04-20T09:19:00;5.60;99.90
38568;DHT22;24338;48.280;10.970;2023-04-20T09:21:28;5.60;99.90
38568;DHT22;24338;48.280;10.970;2023-04-20T09:23:59;5.60;99.90
38568;DHT22;24338;48.280;10.970;2023-04-20T09:26:30;5.50;99.90
38568;DHT22;24338;48.280;10.970;2023-04-20T09:28:57;5.70;99.90
38568;DHT22;24338;48.280;10.970;2023-04-20T09:31:23;5.50;99.90
38568;DHT22;24338;48.280;10.970;2023-04-20T09:33:59;5.50;99.90
38568;DHT22;24338;48.280;10.970;2023-04-20T09:36:45;5.50;99.90
38568;DHT22;24338;48.280;10.970;2023-04-20T09:39:15;5.40;99.90
38568;DHT22;24338;48.280;10.970;2023-04-20T09:41:42;5.40;99.90
38568;DHT22;24338;48.280;10.970;2023-04-20T09:44:10;5.50;99.90
38568;DHT22;24338;48.280;10.970;2023-04-20T09:46:39;5.60;99.90
38568;DHT22;24338;48.280;10.970;2023-04-20T09:49:10;5.60;99.90
38568;DHT22;24338;48.280;10.970;2023-04-20T09:51:39;5.60;99.90
38568;DHT22;24338;48.280;10.970;2023-04-20T09:54:13;5.60;99.90
38568;DHT22;24338;48.280;10.970;2023-04-20T09:56:41;5.60;99.90
38568;DHT22;24338;48.280;10.970;2023-04-20T09:59:08;5.40;99.90
38568;DHT22;24338;48.280;10.970;2023-04-20T10:01:35;5.30;99.90
38568;DHT22;24338;48.280;10.970;2023-04-20T10:04:06;5.40;99.90
38568;DHT22;24338;48.280;10.970;2023-04-20T10:06:36;5.30;99.90
38568;DHT22;24338;48.280;10.970;2023-04-20T10:09:05;5.30;99.90
38568;DHT22;24338;48.280;10.970;2023-04-20T10:11:38;5.40;99.90
38568;DHT22;24338;48.280;10.970;2023-04-20T10:14:21;5.40;99.90
38568;DHT22;24338;48.280;10.970;2023-04-20T10:17:06;5.40;99.90
38568;DHT22;24338;48.280;10.970;2023-04-20T10:19:44;5.40;99.90
38568;DHT22;24338;48.280;10.970;2023-04-20T10:22:30;5.40;99.90
38568;DHT22;24338;48.280;10.970;2023-04-20T10:25:01;5.30;99.90
38568;DHT22;24338;48.280;10.970;2023-04-20T10:27:28;5.30;99.90
38568;DHT22;24338;48.280;10.970;2023-04-20T10:30:10;5.40;99.90
38568;DHT22;24338;48.280;10.970;2023-04-20T10:32:37;5.40;99.90
38568;DHT22;24338;48.280;10.970;2023-04-20T10:35:08;5.30;99.90
38568;DHT22;24338;48.280;10.970;2023-04-20T10:37:49;5.30;99.90
38568;DHT22;24338;48.280;10.970;2023-04-20T10:40:26;5.40;99.90
38568;DHT22;24338;48.280;10.970;2023-04-20T10:42:53;5.50;99.90
38568;DHT22;24338;48.280;10.970;2023-04-20T10:45:19;5.50;99.90
38568;DHT22;24338;48.280;10.970;2023-04-20T10:47:47;5.50;99.90
38568;DHT22;24338;48.280;10.970;2023-04-20T10:50:15;5.60;99.90
38568;DHT22;24338;48.280;10.970;2023-04-20T10:52:43;5.60;99.90
38568;DHT22;24338;48.280;10.970;2023-04-20T10:55:24;5.70;99.90
38568;DHT22;24338;48.280;10.970;2023-04-20T10:57:51;5.70;99.90
38568;DHT22;24338;48.280;10.970;2023-04-20T11:00:26;5.70;99.90
38568;DHT22;24338;48.280;10.970;2023-04-20T11:02:55;5.70;99.90
38568;DHT22;24338;48.280;10.970;2023-04-20T11:05:26;5.60;99.90
38568;DHT22;24338;48.280;10.970;2023-04-20T11:07:55;5.70;99.90
38568;DHT22;24338;48.280;10.970;2023-04-20T11:10:24;5.70;99.90
38568;DHT22;24338;48.280;10.970;2023-04-20T11:12:51;5.70;99.90
38568;DHT22;24338;48.280;10.970;2023-04-20T11:15:18;5.70;99.90
38568;DHT22;24338;48.280;10.970;2023-04-20T11:18:09;5.60;99.90
38568;DHT22;24338;48.280;10.970;2023-04-20T11:20:49;5.60;99.90
38568;DHT22;24338;48.280;10.970;2023-04-20T11:23:21;5.60;99.90
38568;DHT22;24338;48.280;10.970;2023-04-20T11:25:51;5.70;99.90
38568;DHT22;24338;48.280;10.970;2023-04-20T11:28:18;5.70;99.90
38568;DHT22;24338;48.280;10.970;2023-04-20T11:30:45;5.70;99.90
38568;DHT22;24338;48.280;10.970;2023-04-20T11:33:12;5.90;99.90
38568;DHT22;24338;48.280;10.970;2023-04-20T11:35:41;5.90;99.90
38568;DHT22;24338;48.280;10.970;2023-04-20T11:38:09;6.00;99.90
38568;DHT22;24338;48.280;10.970;2023-04-20T11:40:36;6.10;99.90
38568;DHT22;24338;48.280;10.970;2023-04-20T11:43:03;6.00;99.90
38568;DHT22;24338;48.280;10.970;2023-04-20T11:45:31;6.00;99.90
38568;DHT22;24338;48.280;10.970;2023-04-20T11:48:02;6.10;99.90
38568;DHT22;24338;48.280;10.970;2023-04-20T11:50:30;6.30;99.90
38568;DHT22;24338;48.280;10.970;2023-04-20T11:52:57;6.40;99.90
38568;DHT22;24338;48.280;10.970;2023-04-20T11:55:23;6.60;99.90
38568;DHT22;24338;48.280;10.970;2023-04-20T11:57:50;6.70;99.90
38568;DHT22;24338;48.280;10.970;2023-04-20T12:00:17;6.80;99.90
38568;DHT22;24338;48.280;10.970;2023-04-20T12:02:45;6.90;99.90
38568;DHT22;24338;48.280;10.970;2023-04-20T12:05:12;7.00;99.90
38568;DHT22;24338;48.280;10.970;2023-04-20T12:07:39;6.90;99.90
38568;DHT22;24338;48.280;10.970;2023-04-20T12:10:07;7.00;99.90
38568;DHT22;24338;48.280;10.970;2023-04-20T12:12:34;7.00;99.90
38568;DHT22;24338;48.280;10.970;2023-04-20T12:15:01;6.90;99.90
38568;DHT22;24338;48.280;10.970;2023-04-20T12:17:27;6.90;99.90
38568;DHT22;24338;48.280;10.970;2023-04-20T12:19:54;6.80;99.90
38568;DHT22;24338;48.280;10.970;2023-04-20T12:22:23;6.70;99.90
38568;DHT22;24338;48.280;10.970;2023-04-20T12:24:50;6.80;99.90
38568;DHT22;24338;48.280;10.970;2023-04-20T12:27:17;6.80;99.90
38568;DHT22;24338;48.280;10.970;2023-04-20T12:29:43;6.90;99.90
38568;DHT22;24338;48.280;10.970;2023-04-20T12:32:10;6.90;99.90
38568;DHT22;24338;48.280;10.970;2023-04-20T12:34:37;6.90;99.90
38568;DHT22;24338;48.280;10.970;2023-04-20T12:37:04;7.00;99.90
38568;DHT22;24338;48.280;10.970;2023-04-20T12:39:30;7.00;99.90
38568;DHT22;24338;48.280;10.970;2023-04-20T12:41:57;6.90;99.90
38568;DHT22;24338;48.280;10.970;2023-04-20T12:44:24;6.90;99.90
38568;DHT22;24338;48.280;10.970;2023-04-20T12:46:51;6.90;99.90
38568;DHT22;24338;48.280;10.970;2023-04-20T12:49:18;6.90;99.90
38568;DHT22;24338;48.280;10.970;2023-04-20T12:51:45;6.90;99.90
38568;DHT22;24338;48.280;10.970;2023-04-20T12:54:12;6.90;99.90
38568;DHT22;24338;48.280;10.970;2023-04-20T12:56:39;6.80;99.90
38568;DHT22;24338;48.280;10.970;2023-04-20T12:59:06;6.80;99.90
38568;DHT22;24338;48.280;10.970;2023-04-20T13:01:33;6.90;99.90
38568;DHT22;24338;48.280;10.970;2023-04-20T13:03:59;7.00;99.90
38568;DHT22;24338;48.280;10.970;2023-04-20T13:06:27;7.10;99.90
38568;DHT22;24338;48.280;10.970;2023-04-20T13:08:53;7.10;99.90
38568;DHT22;24338;48.280;10.970;2023-04-20T13:11:20;7.00;99.90
38568;DHT22;24338;48.280;10.970;2023-04-20T13:13:47;7.00;99.90
38568;DHT22;24338;48.280;10.970;2023-04-20T13:16:14;7.00;99.90
38568;DHT22;24338;48.280;10.970;2023-04-20T13:18:41;7.00;99.90
38568;DHT22;24338;48.280;10.970;2023-04-20T13:21:08;7.00;99.90
38568;DHT22;24338;48.280;10.970;2023-04-20T13:23:34;7.20;99.90
38568;DHT22;24338;48.280;10.970;2023-04-20T13:26:05;7.20;99.90
38568;DHT22;24338;48.280;10.970;2023-04-20T13:28:32;7.20;99.90
38568;DHT22;24338;48.280;10.970;2023-04-20T13:30:58;7.10;99.90
38568;DHT22;24338;48.280;10.970;2023-04-20T13:33:25;7.20;99.90
38568;DHT22;24338;48.280;10.970;2023-04-20T13:35:52;7.30;99.90
38568;DHT22;24338;48.280;10.970;2023-04-20T13:38:19;7.30;99.90
38568;DHT22;24338;48.280;10.970;2023-04-20T13:40:46;7.30;99.90
38568;DHT22;24338;48.280;10.970;2023-04-20T13:43:13;7.40;99.90
38568;DHT22;24338;48.280;10.970;2023-04-20T13:45:40;7.40;99.90
38568;DHT22;24338;48.280;10.970;2023-04-20T13:48:07;7.40;99.90
38568;DHT22;24338;48.280;10.970;2023-04-20T13:50:34;7.20;99.90
38568;DHT22;24338;48.280;10.970;2023-04-20T13:53:01;7.30;99.90
38568;DHT22;24338;48.280;10.970;2023-04-20T13:55:29;7.40;99.90
38568;DHT22;24338;48.280;10.970;2023-04-20T13:57:56;7.30;99.90
38568;DHT22;24338;48.280;10.970;2023-04-20T14:00:23;7.40;99.90
38568;DHT22;24338;48.280;10.970;2023-04-20T14:02:51;7.40;99.90
38568;DHT22;24338;48.280;10.970;2023-04-20T14:05:18;7.50;99.90
38568;DHT22;24338;48.280;10.970;2023-04-20T14:07:45;7.50;99.90
38568;DHT22;24338;48.280;10.970;2023-04-20T14:10:12;7.50;99.90
38568;DHT22;24338;48.280;10.970;2023-04-20T14:12:39;7.40;99.90
38568;DHT22;24338;48.280;10.970;2023-04-20T14:15:06;7.40;99.90
38568;DHT22;24338;48.280;10.970;2023-04-20T14:17:33;7.30;99.90
38568;DHT22;24338;48.280;10.970;2023-04-20T14:20:00;7.30;99.90
38568;DHT22;24338;48.280;10.970;2023-04-20T14:22:27;7.30;99.90
38568;DHT22;24338;48.280;10.970;2023-04-20T14:24:59;7.40;99.90
38568;DHT22;24338;48.280;10.970;2023-04-20T14:27:26;7.40;99.90
38568;DHT22;24338;48.280;10.970;2023-04-20T14:29:53;7.40;99.90
38568;DHT22;24338;48.280;10.970;2023-04-20T14:32:20;7.30;99.90
38568;DHT22;24338;48.280;10.970;2023-04-20T14:34:46;7.20;99.90
38568;DHT22;24338;48.280;10.970;2023-04-20T14:37:13;7.10;99.90
38568;DHT22;24338;48.280;10.970;2023-04-20T14:39:40;7.00;99.90
38568;DHT22;24338;48.280;10.970;2023-04-20T14:42:07;7.00;99.90
38568;DHT22;24338;48.280;10.970;2023-04-20T14:44:34;6.90;99.90
38568;DHT22;24338;48.280;10.970;2023-04-20T14:47:00;7.00;99.90
38568;DHT22;24338;48.280;10.970;2023-04-20T14:49:28;7.10;99.90
38568;DHT22;24338;48.280;10.970;2023-04-20T14:51:55;7.20;99.90
38568;DHT22;24338;48.280;10.970;2023-04-20T14:54:22;7.30;99.90
38568;DHT22;24338;48.280;10.970;2023-04-20T14:56:49;7.30;99.90
38568;DHT22;24338;48.280;10.970;2023-04-20T14:59:15;7.30;99.90
38568;DHT22;24338;48.280;10.970;2023-04-20T15:01:42;7.30;99.90
38568;DHT22;24338;48.280;10.970;2023-04-20T15:04:26;7.30;99.90
38568;DHT22;24338;48.280;10.970;2023-04-20T15:06:54;7.20;99.90
38568;DHT22;24338;48.280;10.970;2023-04-20T15:09:20;7.20;99.90
38568;DHT22;24338;48.280;10.970;2023-04-20T15:11:47;7.20;99.90
38568;DHT22;24338;48.280;10.970;2023-04-20T15:14:14;7.30;99.90
38568;DHT22;24338;48.280;10.970;2023-04-20T15:16:41;7.20;99.90
38568;DHT22;24338;48.280;10.970;2023-04-20T15:19:08;7.20;99.90
38568;DHT22;24338;48.280;10.970;2023-04-20T15:21:35;7.30;99.90
38568;DHT22;24338;48.280;10.970;2023-04-20T15:24:01;7.20;99.90
38568;DHT22;24338;48.280;10.970;2023-04-20T15:26:28;7.20;99.90
38568;DHT22;24338;48.280;10.970;2023-04-20T15:28:55;7.20;99.90
38568;DHT22;24338;48.280;10.970;2023-04-20T15:31:23;7.20;99.90
38568;DHT22;24338;48.280;10.970;2023-04-20T15:33:50;7.10;99.90
38568;DHT22;24338;48.280;10.970;2023-04-20T15:36:18;7.10;99.90
38568;DHT22;24338;48.280;10.970;2023-04-20T15:38:45;7.10;99.90
38568;DHT22;24338;48.280;10.970;2023-04-20T15:41:12;7.10;99.90